Time;durP1;ratioP1;P1;durP2;ratioP2;P2;SDS_P1;SDS_P2;PMS_P1;PMS_P2;Temp;Humidity;BMP_temperature;BMP_pressure;BME280_temperature;BME280_humidity;BME280_pressure;Samples;Min_cycle;Max_cycle;Signal;HPM_P1;HPM_P2
2022/04/06 00:02:06;;;;;;;8.40;7.47;;;11.20;99.90;;;;;;5052650;28;20261;-70
2022/04/06 00:04:32;;;;;;;8.23;7.27;;;11.20;99.90;;;;;;5050175;28;20269;-69
2022/04/06 00:06:58;;;;;;;10.87;6.90;;;11.30;99.90;;;;;;5052759;28;20250;-71
2022/04/06 00:09:23;;;;;;;7.57;6.37;;;11.30;99.90;;;;;;5052561;28;20271;-71
2022/04/06 00:11:49;;;;;;;8.37;6.93;;;11.30;99.90;;;;;;5052777;28;20233;-71
2022/04/06 00:14:15;;;;;;;15.77;7.60;;;11.20;99.90;;;;;;5051250;28;20652;-72
2022/04/06 00:16:42;;;;;;;9.07;7.30;;;11.20;99.90;;;;;;5053905;28;20187;-70
2022/04/06 00:19:08;;;;;;;7.00;6.30;;;11.20;99.90;;;;;;5050812;28;21093;-71
2022/04/06 00:21:33;;;;;;;9.47;6.50;;;11.20;99.90;;;;;;5049446;28;20460;-71
2022/04/06 00:23:59;;;;;;;9.00;7.40;;;11.30;99.90;;;;;;5050591;28;20471;-71
2022/04/06 00:26:25;;;;;;;8.30;6.97;;;11.30;99.90;;;;;;5051520;28;20226;-71
2022/04/06 00:28:51;;;;;;;7.37;6.67;;;11.30;99.90;;;;;;5052887;28;20683;-71
2022/04/06 00:31:16;;;;;;;7.87;7.07;;;11.30;99.90;;;;;;5051966;28;20530;-70
2022/04/06 00:33:42;;;;;;;7.27;6.57;;;11.30;99.90;;;;;;5052093;28;20192;-71
2022/04/06 00:36:07;;;;;;;7.17;6.27;;;11.30;99.90;;;;;;5050489;28;20931;-71
2022/04/06 00:38:33;;;;;;;8.20;7.33;;;11.30;99.90;;;;;;5052419;28;20250;-71
2022/04/06 00:40:59;;;;;;;6.80;6.00;;;11.30;99.90;;;;;;5051840;28;20594;-71
2022/04/06 00:43:24;;;;;;;10.90;7.20;;;11.30;99.90;;;;;;5050996;28;20203;-71
2022/04/06 00:45:50;;;;;;;6.83;6.13;;;11.30;99.90;;;;;;5052197;28;20195;-71
2022/04/06 00:48:15;;;;;;;7.80;6.90;;;11.30;99.90;;;;;;5052101;28;20778;-71
2022/04/06 00:50:44;;;;;;;8.77;7.17;;;11.30;99.90;;;;;;5049922;28;20660;-70
2022/04/06 00:53:12;;;;;;;8.50;6.10;;;11.30;99.90;;;;;;5055198;28;20188;-70
2022/04/06 00:55:39;;;;;;;9.40;6.60;;;11.20;99.90;;;;;;5052796;28;20426;-70
2022/04/06 00:58:05;;;;;;;7.97;6.53;;;11.20;99.90;;;;;;5055496;28;20854;-70
2022/04/06 01:00:32;;;;;;;7.70;6.53;;;11.20;99.90;;;;;;5049959;28;20474;-70
2022/04/06 01:02:58;;;;;;;10.33;7.50;;;11.20;99.90;;;;;;5053395;28;20885;-70
2022/04/06 01:05:25;;;;;;;6.50;5.40;;;11.20;99.90;;;;;;5052714;28;20941;-69
2022/04/06 01:07:52;;;;;;;7.83;6.93;;;11.20;99.90;;;;;;5050048;28;20441;-71
2022/04/06 01:10:18;;;;;;;7.53;6.30;;;11.20;99.90;;;;;;5054584;28;20437;-72
2022/04/06 01:12:48;;;;;;;7.67;5.70;;;11.10;99.90;;;;;;5054350;28;20464;-72
2022/04/06 01:15:15;;;;;;;10.53;7.57;;;11.10;99.90;;;;;;5051847;28;20539;-72
2022/04/06 01:17:41;;;;;;;8.80;7.20;;;11.10;99.90;;;;;;5053359;28;20968;-72
2022/04/06 01:20:09;;;;;;;8.67;6.90;;;11.10;99.90;;;;;;5053309;28;20602;-72
2022/04/06 01:22:35;;;;;;;10.93;7.80;;;11.10;99.90;;;;;;5052615;28;20531;-72
2022/04/06 01:25:02;;;;;;;7.57;6.70;;;11.10;99.90;;;;;;5053324;28;20450;-71
2022/04/06 01:27:27;;;;;;;7.40;6.67;;;11.20;99.90;;;;;;5053426;28;20425;-71
2022/04/06 01:29:54;;;;;;;7.60;6.40;;;11.20;99.90;;;;;;5053545;28;20514;-71
2022/04/06 01:32:22;;;;;;;8.07;6.63;;;11.10;99.90;;;;;;5052873;28;20285;-70
2022/04/06 01:34:49;;;;;;;8.67;7.13;;;11.10;99.90;;;;;;5055975;28;20437;-71
2022/04/06 01:37:17;;;;;;;7.17;6.40;;;11.10;99.90;;;;;;5050048;28;20474;-70
2022/04/06 01:39:44;;;;;;;8.50;7.30;;;11.10;99.90;;;;;;5049689;28;20535;-71
2022/04/06 01:42:12;;;;;;;7.57;6.77;;;11.10;99.90;;;;;;5051173;28;20500;-71
2022/04/06 01:44:38;;;;;;;7.17;6.47;;;11.10;99.90;;;;;;5053682;28;20433;-71
2022/04/06 01:47:06;;;;;;;7.80;7.00;;;11.10;99.90;;;;;;5054823;28;20789;-71
2022/04/06 01:52:16;;;;;;;8.40;6.83;;;11.10;99.90;;;;;;5056803;28;20479;-71
2022/04/06 01:54:44;;;;;;;7.83;6.80;;;11.10;99.90;;;;;;5055771;28;20456;-71
2022/04/06 01:57:10;;;;;;;9.87;6.73;;;11.10;99.90;;;;;;5055139;28;20179;-71
2022/04/06 01:59:36;;;;;;;8.87;7.07;;;11.10;99.90;;;;;;5060053;28;21075;-71
2022/04/06 02:02:03;;;;;;;8.80;7.40;;;11.10;99.90;;;;;;5062774;28;20196;-70
2022/04/06 02:04:29;;;;;;;9.17;7.27;;;11.10;99.90;;;;;;5055969;28;20630;-71
2022/04/06 02:06:54;;;;;;;8.53;6.43;;;11.10;99.90;;;;;;5059307;28;20437;-72
2022/04/06 02:09:20;;;;;;;8.20;7.40;;;11.10;99.90;;;;;;5059017;28;20179;-72
2022/04/06 02:11:47;;;;;;;8.60;6.80;;;11.00;99.90;;;;;;5057317;28;20283;-72
2022/04/06 02:14:13;;;;;;;7.80;6.30;;;11.10;99.90;;;;;;5057879;28;20807;-71
2022/04/06 02:16:39;;;;;;;7.83;7.03;;;11.10;99.90;;;;;;5055577;28;21010;-70
2022/04/06 02:19:05;;;;;;;8.07;6.70;;;11.10;99.90;;;;;;5055988;28;20462;-70
2022/04/06 02:21:31;;;;;;;9.30;7.13;;;11.10;99.90;;;;;;5057203;28;20492;-70
2022/04/06 02:23:57;;;;;;;8.00;7.00;;;11.00;99.90;;;;;;5059653;28;20225;-70
2022/04/06 02:26:23;;;;;;;7.97;7.17;;;11.00;99.90;;;;;;5059738;28;20788;-71
2022/04/06 02:28:49;;;;;;;8.90;6.77;;;11.00;99.90;;;;;;5058004;28;20196;-71
2022/04/06 02:31:14;;;;;;;7.97;7.10;;;11.00;99.90;;;;;;5058252;28;20302;-70
2022/04/06 02:33:40;;;;;;;7.97;7.17;;;11.00;99.90;;;;;;5057420;28;20188;-71
2022/04/06 02:36:06;;;;;;;9.00;8.00;;;11.00;99.90;;;;;;5054724;28;20549;-71
2022/04/06 02:38:32;;;;;;;7.80;7.00;;;11.00;99.90;;;;;;5057129;28;20425;-71
2022/04/06 02:40:57;;;;;;;7.87;6.97;;;11.00;99.90;;;;;;5054785;28;20469;-71
2022/04/06 02:43:23;;;;;;;8.53;7.27;;;11.10;99.90;;;;;;5056205;28;20190;-71
2022/04/06 02:45:49;;;;;;;8.00;7.20;;;11.00;99.90;;;;;;5056250;28;20195;-71
2022/04/06 02:48:18;;;;;;;7.40;6.60;;;11.00;99.90;;;;;;5055587;28;20447;-71
2022/04/06 02:50:43;;;;;;;8.47;6.87;;;11.00;99.90;;;;;;5057243;28;20294;-71
2022/04/06 02:53:09;;;;;;;7.30;6.60;;;11.00;99.90;;;;;;5055693;28;20508;-71
2022/04/06 02:55:35;;;;;;;11.83;6.23;;;11.00;99.90;;;;;;5054668;28;20279;-71
2022/04/06 02:58:00;;;;;;;7.10;6.40;;;11.10;99.90;;;;;;5055944;28;20199;-71
2022/04/06 03:00:26;;;;;;;6.80;6.10;;;11.10;99.90;;;;;;5054482;28;20210;-71
2022/04/06 03:02:52;;;;;;;7.77;6.77;;;11.10;99.90;;;;;;5053370;28;20210;-71
2022/04/06 03:05:17;;;;;;;8.37;6.20;;;11.10;99.90;;;;;;5055022;28;20190;-71
2022/04/06 03:07:43;;;;;;;7.53;6.83;;;11.10;99.90;;;;;;5050532;28;20188;-70
2022/04/06 03:10:09;;;;;;;7.20;5.57;;;11.10;99.90;;;;;;5053107;28;20192;-71
2022/04/06 03:12:35;;;;;;;8.37;6.13;;;11.00;99.90;;;;;;5054099;28;20623;-70
2022/04/06 03:15:01;;;;;;;8.63;6.90;;;11.00;99.90;;;;;;5055837;28;20488;-71
2022/04/06 03:17:26;;;;;;;7.03;6.33;;;11.10;99.90;;;;;;5056578;28;20537;-70
2022/04/06 03:19:52;;;;;;;7.17;6.40;;;11.00;99.90;;;;;;5057283;28;20219;-71
2022/04/06 03:22:17;;;;;;;7.70;6.97;;;11.00;99.90;;;;;;5058161;28;20346;-71
2022/04/06 03:24:47;;;;;;;6.37;5.33;;;11.00;99.90;;;;;;5054650;28;20279;-71
2022/04/06 03:27:13;;;;;;;6.90;6.00;;;11.00;99.90;;;;;;5056570;28;20175;-71
2022/04/06 03:29:40;;;;;;;7.00;6.30;;;11.00;99.90;;;;;;5053711;28;20450;-71
2022/04/06 03:32:07;;;;;;;6.80;5.70;;;11.00;99.90;;;;;;5058940;28;20473;-71
2022/04/06 03:34:33;;;;;;;6.90;6.17;;;11.00;99.90;;;;;;5056059;28;20484;-71
2022/04/06 03:36:59;;;;;;;5.87;5.27;;;11.00;99.90;;;;;;5053878;28;20785;-71
2022/04/06 03:39:24;;;;;;;7.60;5.50;;;11.00;99.90;;;;;;5056782;28;20262;-70
2022/04/06 03:41:50;;;;;;;6.40;5.80;;;11.10;99.90;;;;;;5057373;28;20318;-71
2022/04/06 03:44:16;;;;;;;6.93;6.07;;;11.10;99.90;;;;;;5057728;28;20671;-71
2022/04/06 03:46:41;;;;;;;8.40;6.40;;;11.10;99.90;;;;;;5055177;28;20184;-71
2022/04/06 03:49:07;;;;;;;6.57;5.30;;;11.00;99.90;;;;;;5057849;28;20652;-71
2022/04/06 03:51:33;;;;;;;6.33;5.50;;;11.00;99.90;;;;;;5053365;28;20945;-71
2022/04/06 03:53:58;;;;;;;5.90;5.30;;;11.00;99.90;;;;;;5055041;28;20438;-71
2022/04/06 03:56:24;;;;;;;6.07;5.17;;;11.00;99.90;;;;;;5053901;28;20716;-71
2022/04/06 03:58:50;;;;;;;5.63;5.00;;;11.10;99.90;;;;;;5054338;28;20184;-70
2022/04/06 04:01:16;;;;;;;6.00;5.13;;;11.10;99.90;;;;;;5054354;28;20202;-72
2022/04/06 04:03:41;;;;;;;8.93;5.00;;;11.10;99.90;;;;;;5057823;28;20188;-71
2022/04/06 04:06:07;;;;;;;5.40;4.93;;;11.10;99.90;;;;;;5055225;28;20210;-72
2022/04/06 04:08:33;;;;;;;21.00;7.33;;;11.10;99.90;;;;;;5052749;28;20187;-71
2022/04/06 04:10:59;;;;;;;5.30;4.80;;;11.10;99.90;;;;;;5052119;28;20205;-71
2022/04/06 04:13:24;;;;;;;6.20;4.70;;;11.10;99.90;;;;;;5052091;28;20430;-71
2022/04/06 04:15:50;;;;;;;5.30;4.70;;;11.10;99.90;;;;;;5050670;28;20275;-71
2022/04/06 04:18:16;;;;;;;5.20;4.43;;;11.10;99.90;;;;;;5050254;28;20179;-71
2022/04/06 04:20:45;;;;;;;6.17;4.87;;;11.10;99.90;;;;;;5050763;28;20290;-71
2022/04/06 04:23:14;;;;;;;5.97;5.00;;;11.10;99.90;;;;;;5054403;28;20681;-71
2022/04/06 04:25:39;;;;;;;5.63;4.57;;;11.10;99.90;;;;;;5053386;28;20468;-69
2022/04/06 04:28:05;;;;;;;5.40;4.67;;;11.20;99.90;;;;;;5052467;28;20454;-69
2022/04/06 04:30:32;;;;;;;5.33;4.70;;;11.10;99.90;;;;;;5052049;28;20244;-71
2022/04/06 04:32:58;;;;;;;4.87;4.37;;;11.20;99.90;;;;;;5053685;28;20478;-70
2022/04/06 04:35:24;;;;;;;8.20;5.63;;;11.10;99.90;;;;;;5054531;28;20507;-71
2022/04/06 04:37:49;;;;;;;6.00;4.93;;;11.10;99.90;;;;;;5055913;28;20175;-71
2022/04/06 04:40:16;;;;;;;7.37;6.27;;;11.10;99.90;;;;;;5056620;28;20588;-71
2022/04/06 04:42:42;;;;;;;6.73;5.53;;;11.10;99.90;;;;;;5053819;28;20352;-71
2022/04/06 04:45:10;;;;;;;7.10;5.60;;;11.10;99.90;;;;;;5054367;28;20434;-71
2022/04/06 04:47:36;;;;;;;5.40;4.80;;;11.10;99.90;;;;;;5052289;28;21036;-71
2022/04/06 04:50:03;;;;;;;7.40;5.50;;;11.20;99.90;;;;;;5053113;28;20505;-70
2022/04/06 04:52:31;;;;;;;7.97;5.50;;;11.10;99.90;;;;;;5052121;28;20990;-70
2022/04/06 04:54:56;;;;;;;7.30;5.87;;;11.10;99.90;;;;;;5052099;28;20430;-71
2022/04/06 04:57:22;;;;;;;7.20;5.27;;;11.10;99.90;;;;;;5050333;28;21018;-70
2022/04/06 04:59:52;;;;;;;5.07;4.57;;;11.10;99.90;;;;;;5052435;28;20377;-70
2022/04/06 05:02:18;;;;;;;6.77;5.60;;;11.20;99.90;;;;;;5053968;28;20207;-70
2022/04/06 05:04:44;;;;;;;7.20;5.23;;;11.20;99.90;;;;;;5054366;28;20426;-70
2022/04/06 05:07:10;;;;;;;8.30;7.13;;;11.20;99.90;;;;;;5053315;28;20844;-69
2022/04/06 05:09:35;;;;;;;5.57;4.90;;;11.20;99.90;;;;;;5053716;28;20913;-71
2022/04/06 05:12:01;;;;;;;7.07;5.87;;;11.30;99.90;;;;;;5056317;28;20536;-70
2022/04/06 05:14:27;;;;;;;7.70;6.10;;;11.30;99.90;;;;;;5054032;28;20241;-70
2022/04/06 05:16:53;;;;;;;7.07;6.37;;;11.20;99.90;;;;;;5053966;28;20638;-70
2022/04/06 05:19:18;;;;;;;10.57;5.90;;;11.20;99.90;;;;;;5051565;28;20313;-70
2022/04/06 05:21:44;;;;;;;7.27;5.87;;;11.20;99.90;;;;;;5053147;28;20207;-69
2022/04/06 05:24:09;;;;;;;7.20;5.90;;;11.20;99.90;;;;;;5055781;28;20218;-70
2022/04/06 05:26:35;;;;;;;7.00;5.80;;;11.20;99.90;;;;;;5054072;28;20176;-69
2022/04/06 05:29:01;;;;;;;6.97;6.03;;;11.20;99.90;;;;;;5047450;28;20176;-71
2022/04/06 05:31:27;;;;;;;6.47;5.80;;;11.10;99.90;;;;;;5056583;28;20196;-71
2022/04/06 05:33:53;;;;;;;7.67;5.80;;;11.00;99.90;;;;;;5052514;28;20953;-70
2022/04/06 05:36:23;;;;;;;7.50;6.70;;;11.10;99.90;;;;;;5056369;28;20202;-70
2022/04/06 05:38:49;;;;;;;7.67;6.60;;;11.10;99.90;;;;;;5055257;28;21018;-70
2022/04/06 05:41:14;;;;;;;10.10;5.80;;;11.10;99.90;;;;;;5050480;28;20525;-70
2022/04/06 05:43:40;;;;;;;8.80;6.23;;;11.10;99.90;;;;;;5053174;28;20503;-70
2022/04/06 05:46:05;;;;;;;7.40;5.70;;;11.20;99.90;;;;;;5057152;28;20211;-70
2022/04/06 05:48:31;;;;;;;6.07;5.43;;;11.20;99.90;;;;;;5052857;28;20190;-70
2022/04/06 05:50:57;;;;;;;8.63;6.53;;;11.10;99.90;;;;;;5051706;28;20995;-70
2022/04/06 05:53:22;;;;;;;6.13;5.53;;;11.20;99.90;;;;;;5049676;28;20555;-71
2022/04/06 05:55:48;;;;;;;8.07;5.83;;;11.20;99.90;;;;;;5050378;28;20183;-70
2022/04/06 05:58:14;;;;;;;6.40;5.40;;;11.20;99.90;;;;;;5055351;28;20183;-71
2022/04/06 06:00:40;;;;;;;5.93;5.20;;;11.20;99.90;;;;;;5051429;28;20637;-70
2022/04/06 06:03:06;;;;;;;7.77;5.17;;;11.20;99.90;;;;;;5053735;28;20480;-71
2022/04/06 06:05:32;;;;;;;5.40;4.80;;;11.20;99.90;;;;;;5050023;28;21167;-71
2022/04/06 06:07:57;;;;;;;4.90;4.40;;;11.20;99.90;;;;;;5052590;28;20195;-70
2022/04/06 06:10:23;;;;;;;7.53;4.40;;;11.20;99.90;;;;;;5051592;28;20180;-71
2022/04/06 06:12:49;;;;;;;6.90;5.20;;;11.20;99.90;;;;;;5049975;28;20203;-69
2022/04/06 06:15:18;;;;;;;5.93;4.93;;;11.20;99.90;;;;;;5050113;28;20240;-69
2022/04/06 06:17:43;;;;;;;6.23;4.03;;;11.20;99.90;;;;;;5044868;28;20226;-69
2022/04/06 06:20:09;;;;;;;4.83;4.27;;;11.20;99.90;;;;;;5049515;28;20498;-69
2022/04/06 06:22:35;;;;;;;5.27;4.70;;;11.20;99.90;;;;;;5048295;28;20203;-70
2022/04/06 06:25:02;;;;;;;4.97;4.23;;;11.20;99.90;;;;;;5044298;28;20884;-70
2022/04/06 06:27:27;;;;;;;5.47;4.10;;;11.30;99.90;;;;;;5046869;28;20195;-70
2022/04/06 06:29:53;;;;;;;6.30;3.73;;;11.30;99.90;;;;;;5046212;28;21288;-69
2022/04/06 06:32:19;;;;;;;4.63;3.87;;;11.30;99.90;;;;;;5048651;28;20946;-67
2022/04/06 06:34:44;;;;;;;5.30;4.10;;;11.30;99.90;;;;;;5052018;28;20179;-68
2022/04/06 06:37:11;;;;;;;4.13;3.60;;;11.30;99.90;;;;;;5051599;28;20313;-68
2022/04/06 06:39:37;;;;;;;5.43;4.60;;;11.30;99.90;;;;;;5054118;28;20203;-66
2022/04/06 06:42:04;;;;;;;4.77;4.00;;;11.30;99.90;;;;;;5058889;28;20493;-67
2022/04/06 06:44:30;;;;;;;4.27;3.87;;;11.30;99.90;;;;;;5054821;28;20429;-67
2022/04/06 06:46:55;;;;;;;5.80;3.87;;;11.30;99.90;;;;;;5056991;28;20532;-67
2022/04/06 06:49:21;;;;;;;7.77;3.90;;;11.30;99.90;;;;;;5056404;28;20202;-67
2022/04/06 06:51:46;;;;;;;4.77;3.80;;;11.30;99.90;;;;;;5051407;28;20200;-67
2022/04/06 06:54:12;;;;;;;5.83;4.43;;;11.30;99.90;;;;;;5058629;28;20450;-68
2022/04/06 06:56:38;;;;;;;6.10;4.20;;;11.40;99.90;;;;;;5056726;28;20646;-67
2022/04/06 06:59:03;;;;;;;5.70;5.20;;;11.40;99.90;;;;;;5059215;28;20183;-67
2022/04/06 07:01:29;;;;;;;7.40;5.57;;;11.40;99.90;;;;;;5052911;28;20215;-66
2022/04/06 07:03:55;;;;;;;5.63;5.03;;;11.40;99.90;;;;;;5057049;28;20552;-67
2022/04/06 07:06:20;;;;;;;7.23;5.43;;;11.50;99.90;;;;;;5051543;28;20186;-68
2022/04/06 07:08:46;;;;;;;5.47;4.40;;;11.50;99.90;;;;;;5054068;28;20184;-68
2022/04/06 07:11:11;;;;;;;5.23;4.73;;;11.50;99.90;;;;;;5051735;28;20210;-67
2022/04/06 07:13:37;;;;;;;5.60;5.00;;;11.50;99.90;;;;;;5056622;28;20175;-68
2022/04/06 07:16:05;;;;;;;4.63;4.13;;;11.50;99.90;;;;;;5053729;28;20217;-67
2022/04/06 07:18:31;;;;;;;5.43;4.57;;;11.60;99.90;;;;;;5054079;28;20184;-69
2022/04/06 07:20:58;;;;;;;5.27;4.50;;;11.70;99.90;;;;;;5058830;28;20946;-66
2022/04/06 07:23:23;;;;;;;5.00;4.50;;;11.70;99.90;;;;;;5054336;28;20497;-67
2022/04/06 07:25:49;;;;;;;7.20;5.10;;;11.70;99.90;;;;;;5054488;28;20571;-66
2022/04/06 07:28:14;;;;;;;6.50;5.07;;;11.80;99.90;;;;;;5055076;28;20261;-67
2022/04/06 07:30:40;;;;;;;7.60;4.63;;;11.80;99.90;;;;;;5055633;28;20566;-67
2022/04/06 07:33:09;;;;;;;5.83;4.83;;;11.80;99.90;;;;;;5056544;28;20206;-67
2022/04/06 07:35:35;;;;;;;5.10;4.43;;;11.80;99.90;;;;;;5052176;28;20268;-68
2022/04/06 07:38:01;;;;;;;5.90;4.40;;;11.80;99.90;;;;;;5051770;28;20455;-68
2022/04/06 07:40:26;;;;;;;7.10;4.87;;;11.80;99.90;;;;;;5052030;28;20530;-67
2022/04/06 07:42:52;;;;;;;6.70;5.27;;;11.70;99.90;;;;;;5044507;28;20365;-69
2022/04/06 07:45:20;;;;;;;5.37;4.57;;;11.80;99.90;;;;;;5045775;28;20366;-70
2022/04/06 07:47:48;;;;;;;5.07;4.17;;;11.70;99.90;;;;;;5055934;28;20528;-69
2022/04/06 07:50:15;;;;;;;6.10;4.60;;;11.70;99.90;;;;;;5047844;28;20465;-68
2022/04/06 07:52:42;;;;;;;9.40;4.80;;;11.80;99.90;;;;;;5049991;28;20464;-67
2022/04/06 07:55:09;;;;;;;5.73;4.40;;;11.80;99.90;;;;;;5053049;28;20974;-68
2022/04/06 07:57:35;;;;;;;5.40;4.13;;;11.80;99.90;;;;;;5051873;28;20445;-69
2022/04/06 08:00:07;;;;;;;5.60;4.40;;;11.90;99.90;;;;;;5056304;28;20474;-70
2022/04/06 08:02:33;;;;;;;5.60;4.17;;;12.00;99.90;;;;;;5052200;28;21051;-68
2022/04/06 08:04:59;;;;;;;7.20;6.37;;;12.10;99.90;;;;;;5054944;28;20547;-67
2022/04/06 08:07:24;;;;;;;6.00;4.60;;;12.10;99.90;;;;;;5053944;28;20919;-64
2022/04/06 08:09:50;;;;;;;5.70;4.60;;;12.00;99.90;;;;;;5052102;28;20192;-67
2022/04/06 08:12:16;;;;;;;5.67;4.30;;;12.10;99.90;;;;;;5051203;28;20203;-67
2022/04/06 08:14:42;;;;;;;5.77;4.33;;;12.10;99.90;;;;;;5049470;28;20322;-69
2022/04/06 08:17:08;;;;;;;4.63;3.90;;;12.10;99.90;;;;;;5050499;28;20532;-69
2022/04/06 08:19:34;;;;;;;8.23;4.00;;;12.10;99.90;;;;;;5052782;28;20184;-68
2022/04/06 08:21:59;;;;;;;6.40;4.37;;;12.10;99.90;;;;;;5054244;28;20735;-68
2022/04/06 08:24:27;;;;;;;5.47;3.80;;;12.10;99.90;;;;;;5053043;28;20180;-66
2022/04/06 08:26:53;;;;;;;4.30;3.90;;;12.20;99.90;;;;;;5052530;28;20183;-66
2022/04/06 08:29:18;;;;;;;4.43;3.73;;;12.20;99.90;;;;;;5053398;28;20449;-68
2022/04/06 08:31:44;;;;;;;5.90;3.50;;;12.20;99.90;;;;;;5050548;28;20202;-68
2022/04/06 08:34:09;;;;;;;4.47;3.50;;;12.30;99.90;;;;;;5054277;28;20210;-68
2022/04/06 08:36:35;;;;;;;6.50;4.37;;;12.20;99.90;;;;;;5053529;28;20194;-68
2022/04/06 08:39:02;;;;;;;4.07;3.63;;;12.20;99.90;;;;;;5052951;28;20183;-68
2022/04/06 08:41:29;;;;;;;4.30;3.70;;;12.30;99.90;;;;;;5055706;28;20613;-69
2022/04/06 08:43:58;;;;;;;4.17;3.40;;;12.30;99.90;;;;;;5056880;28;20483;-68
2022/04/06 08:46:25;;;;;;;4.00;3.03;;;12.30;99.90;;;;;;5053558;28;20418;-68
2022/04/06 08:48:51;;;;;;;4.00;3.00;;;12.30;99.90;;;;;;5052495;28;20572;-67
2022/04/06 08:51:18;;;;;;;6.13;4.00;;;12.40;99.90;;;;;;5052967;28;20464;-67
2022/04/06 08:53:45;;;;;;;5.03;3.50;;;12.40;99.90;;;;;;5053619;28;20448;-68
2022/04/06 08:56:14;;;;;;;5.23;2.97;;;12.40;99.90;;;;;;5053771;28;20449;-70
2022/04/06 08:58:43;;;;;;;4.43;3.50;;;12.40;99.90;;;;;;5045839;28;20535;-69
2022/04/06 09:01:09;;;;;;;6.13;3.27;;;12.40;99.90;;;;;;5046238;28;20567;-67
2022/04/06 09:03:35;;;;;;;3.87;3.00;;;12.30;99.90;;;;;;5052226;28;20536;-67
2022/04/06 09:06:06;;;;;;;4.00;3.47;;;12.30;99.90;;;;;;5052641;28;20574;-67
2022/04/06 09:08:40;;;;;;;5.90;3.93;;;12.30;99.90;;;;;;5048380;28;20438;-67
2022/04/06 09:11:07;;;;;;;7.10;3.47;;;12.40;99.90;;;;;;5051352;28;20456;-67
2022/04/06 09:13:33;;;;;;;5.40;3.47;;;12.40;99.90;;;;;;5052479;28;20430;-67
2022/04/06 09:16:00;;;;;;;5.93;4.17;;;12.50;99.90;;;;;;5049548;28;20434;-68
2022/04/06 09:18:33;;;;;;;3.73;3.33;;;12.50;99.90;;;;;;5049249;28;20187;-66
2022/04/06 09:21:00;;;;;;;3.70;3.27;;;12.50;99.90;;;;;;5050793;28;20457;-67
2022/04/06 09:23:29;;;;;;;3.53;3.17;;;12.50;99.90;;;;;;5050078;28;20442;-68
2022/04/06 09:25:55;;;;;;;3.13;2.83;;;12.50;99.90;;;;;;5047526;28;20980;-67
2022/04/06 09:28:20;;;;;;;3.67;3.13;;;12.50;99.90;;;;;;5047104;28;20445;-67
2022/04/06 09:30:46;;;;;;;3.77;3.03;;;12.50;99.90;;;;;;5050501;28;20241;-68
2022/04/06 09:33:18;;;;;;;3.83;2.70;;;12.50;99.90;;;;;;5050603;28;20187;-67
2022/04/06 09:35:44;;;;;;;4.40;3.13;;;12.60;99.90;;;;;;5053721;28;20449;-68
2022/04/06 09:38:25;;;;;;;5.07;3.50;;;12.60;99.90;;;;;;5046820;28;20440;-69
2022/04/06 09:41:03;;;;;;;5.17;3.50;;;12.50;99.90;;;;;;5052018;28;20218;-68
2022/04/06 09:43:31;;;;;;;4.50;3.67;;;12.40;99.90;;;;;;5053194;28;20977;-68
2022/04/06 09:49:09;;;;;;;4.47;3.40;;;12.50;99.90;;;;;;5053555;28;21048;-68
2022/04/06 09:51:36;;;;;;;3.70;3.40;;;12.60;99.90;;;;;;5058128;28;20465;-67
2022/04/06 09:54:09;;;;;;;9.27;4.47;;;12.60;99.90;;;;;;5054599;28;20453;-68
2022/04/06 09:56:36;;;;;;;4.30;3.67;;;12.70;99.90;;;;;;5051495;28;20653;-68
2022/04/06 09:59:03;;;;;;;7.20;3.73;;;12.70;99.90;;;;;;5054112;28;20433;-68
2022/04/06 10:01:32;;;;;;;5.27;3.53;;;12.80;99.90;;;;;;5051675;28;20469;-70
2022/04/06 10:04:02;;;;;;;4.80;4.00;;;12.80;99.90;;;;;;5051177;28;20441;-69
2022/04/06 10:06:37;;;;;;;5.00;3.90;;;12.90;99.90;;;;;;5047330;28;20926;-68
2022/04/06 10:09:06;;;;;;;5.17;3.20;;;13.00;99.90;;;;;;5057672;28;20441;-68
2022/04/06 10:11:34;;;;;;;3.37;3.00;;;13.20;99.90;;;;;;5050890;28;20476;-69
2022/04/06 10:14:01;;;;;;;6.40;3.57;;;13.20;99.90;;;;;;5055177;28;20437;-68
2022/04/06 10:16:27;;;;;;;5.50;3.70;;;13.10;99.90;;;;;;5057965;28;20438;-67
2022/04/06 10:18:54;;;;;;;2.90;2.60;;;13.10;99.90;;;;;;5056044;28;20436;-70
2022/04/06 10:21:59;;;;;;;5.00;3.30;;;13.20;99.90;;;;;;5057843;28;20710;-71
2022/04/06 10:24:51;;;;;;;3.70;2.90;;;13.20;99.90;;;;;;5060392;28;21073;-71
2022/04/06 10:27:27;;;;;;;4.80;3.43;;;13.30;99.90;;;;;;5050988;28;20465;-69
2022/04/06 10:30:08;;;;;;;3.80;2.90;;;13.50;99.90;;;;;;5054915;28;20436;-66
2022/04/06 10:32:42;;;;;;;4.10;3.70;;;13.60;99.90;;;;;;5056913;28;20458;-68
2022/04/06 10:35:31;;;;;;;4.43;3.90;;;13.60;99.90;;;;;;5062513;28;20422;-69
2022/04/06 10:37:58;;;;;;;5.10;3.80;;;13.40;99.90;;;;;;5056145;28;21160;-69
2022/04/06 10:40:24;;;;;;;4.57;3.67;;;13.40;99.90;;;;;;5055120;28;20544;-69
2022/04/06 10:42:51;;;;;;;5.37;3.57;;;13.40;99.90;;;;;;5056742;28;20811;-70
2022/04/06 10:45:29;;;;;;;5.30;3.53;;;13.40;99.90;;;;;;5058078;28;20464;-69
2022/04/06 10:48:18;;;;;;;4.80;3.97;;;13.30;99.90;;;;;;5060518;28;20425;-69
2022/04/06 10:50:46;;;;;;;6.63;4.43;;;13.30;99.90;;;;;;5058228;28;21341;-70
2022/04/06 10:53:20;;;;;;;7.10;5.00;;;13.30;99.90;;;;;;5053285;28;20444;-67
2022/04/06 10:56:01;;;;;;;7.77;4.00;;;13.40;99.90;;;;;;5056753;28;20444;-67
2022/04/06 10:58:26;;;;;;;4.03;3.60;;;13.60;99.90;;;;;;5058064;28;20810;-68
2022/04/06 11:01:18;;;;;;;5.30;4.10;;;13.70;99.90;;;;;;5055177;28;20465;-66
2022/04/06 11:04:05;;;;;;;4.47;3.53;;;13.60;99.90;;;;;;5061963;28;20263;-69
2022/04/06 11:07:00;;;;;;;3.60;3.07;;;13.60;99.90;;;;;;5058429;28;20453;-68
2022/04/06 11:12:32;;;;;;;4.47;3.20;;;13.70;99.90;;;;;;5058067;28;20660;-67
2022/04/06 11:15:00;;;;;;;3.13;2.83;;;14.00;99.90;;;;;;5057564;28;20428;-68
2022/04/06 11:17:33;;;;;;;5.57;3.00;;;14.20;99.90;;;;;;5055588;28;20508;-68
2022/04/06 11:19:59;;;;;;;4.30;3.90;;;14.20;99.90;;;;;;5058771;28;20603;-66
2022/04/06 11:22:26;;;;;;;6.73;4.00;;;14.10;99.90;;;;;;5054077;28;20819;-66
2022/04/06 11:24:54;;;;;;;5.00;4.50;;;14.10;99.90;;;;;;5058861;28;20603;-67
2022/04/06 11:27:33;;;;;;;8.63;4.13;;;13.90;99.90;;;;;;5062188;28;20425;-67
2022/04/06 11:30:12;;;;;;;4.50;3.63;;;13.90;99.90;;;;;;5057596;28;20836;-69
2022/04/06 11:32:38;;;;;;;4.47;4.07;;;14.00;99.90;;;;;;5056245;28;20923;-68
2022/04/06 11:35:07;;;;;;;6.13;4.07;;;13.90;99.90;;;;;;5057441;28;20426;-69
2022/04/06 11:37:43;;;;;;;7.20;4.00;;;14.00;99.90;;;;;;5054822;28;20437;-68
2022/04/06 11:40:10;;;;;;;4.60;3.93;;;14.10;99.90;;;;;;5059041;28;20823;-69
2022/04/06 11:42:36;;;;;;;4.67;3.33;;;14.20;99.90;;;;;;5056342;28;20492;-68
2022/04/06 11:45:02;;;;;;;4.03;3.60;;;14.30;99.90;;;;;;5057582;28;20431;-69
2022/04/06 11:47:30;;;;;;;3.77;3.43;;;14.30;99.90;;;;;;5057649;28;20808;-68
2022/04/06 11:49:56;;;;;;;3.70;3.23;;;14.50;99.90;;;;;;5057087;28;20437;-68
2022/04/06 11:52:22;;;;;;;3.47;3.13;;;14.60;99.90;;;;;;5056534;28;20495;-68
2022/04/06 11:54:52;;;;;;;3.50;3.00;;;14.70;99.90;;;;;;5059352;28;20426;-67
2022/04/06 11:57:18;;;;;;;3.17;2.77;;;14.80;99.90;;;;;;5053818;28;21063;-67
2022/04/06 11:59:55;;;;;;;3.20;2.90;;;15.00;99.90;;;;;;5053781;28;20465;-67
2022/04/06 12:02:21;;;;;;;4.30;2.93;;;15.00;99.90;;;;;;5055051;28;20293;-67
2022/04/06 12:05:02;;;;;;;3.40;3.03;;;15.20;99.90;;;;;;5053401;28;20541;-68
2022/04/06 12:07:28;;;;;;;3.20;2.90;;;15.40;99.90;;;;;;5057585;28;20306;-68
2022/04/06 12:09:54;;;;;;;3.80;3.20;;;15.60;99.90;;;;;;5053496;28;20533;-69
2022/04/06 12:12:22;;;;;;;5.73;4.20;;;15.60;99.90;;;;;;5051212;28;20275;-69
2022/04/06 12:14:48;;;;;;;7.17;3.53;;;15.60;99.90;;;;;;5058766;28;20882;-69
2022/04/06 12:17:14;;;;;;;6.70;3.30;;;15.80;99.90;;;;;;5053237;28;20424;-69
2022/04/06 12:19:40;;;;;;;5.40;3.00;;;15.90;99.90;;;;;;5054615;28;20913;-69
2022/04/06 12:22:11;;;;;;;8.93;3.40;;;16.00;99.90;;;;;;5056469;28;20555;-70
2022/04/06 12:24:41;;;;;;;3.67;3.37;;;16.00;99.90;;;;;;5052668;28;20970;-69
2022/04/06 12:27:07;;;;;;;6.33;3.30;;;15.70;99.90;;;;;;5050173;28;20430;-70
2022/04/06 12:29:35;;;;;;;4.53;3.40;;;15.30;99.90;;;;;;5050763;28;20437;-70
2022/04/06 12:32:02;;;;;;;4.60;3.07;;;15.20;99.90;;;;;;5055293;28;20448;-70
2022/04/06 12:34:29;;;;;;;8.13;3.17;;;15.10;99.90;;;;;;5051809;28;20422;-70
2022/04/06 12:36:55;;;;;;;3.70;3.03;;;15.20;99.90;;;;;;5054946;28;20475;-70
2022/04/06 12:39:21;;;;;;;7.33;3.50;;;15.30;99.90;;;;;;5054495;28;20564;-70
2022/04/06 12:42:02;;;;;;;3.90;3.40;;;15.30;99.90;;;;;;5055266;28;20556;-70
2022/04/06 12:44:29;;;;;;;3.60;3.10;;;15.50;99.90;;;;;;5052623;28;20515;-70
2022/04/06 12:46:56;;;;;;;3.67;3.37;;;15.60;99.90;;;;;;5058916;28;20521;-70
2022/04/06 12:49:36;;;;;;;5.30;3.60;;;15.80;99.90;;;;;;5051094;28;20431;-69
2022/04/06 12:52:05;;;;;;;5.37;3.30;;;15.80;99.90;;;;;;5053061;28;20549;-69
2022/04/06 12:54:31;;;;;;;3.50;2.97;;;15.70;99.90;;;;;;5055012;28;20831;-69
2022/04/06 12:57:13;;;;;;;4.30;3.20;;;15.60;99.90;;;;;;5050421;28;20489;-69